createdAt,value
2023-01-17T00:02:01.030Z,96348.22
2023-01-17T00:04:47.002Z,96353.91
2023-01-17T00:07:36.388Z,96358.75
2023-01-17T00:10:07.402Z,96356.34
2023-01-17T00:12:35.196Z,96352.88
2023-01-17T00:15:02.356Z,96351.25
2023-01-17T00:17:30.264Z,96347.75
2023-01-17T00:20:15.758Z,96353.44
2023-01-17T00:23:02.946Z,96354.81
2023-01-17T00:25:52.691Z,96357.78
2023-01-17T00:28:19.935Z,96352.69
2023-01-17T00:30:47.091Z,96354.63
2023-01-17T00:33:14.060Z,96355.41
2023-01-17T00:35:40.950Z,96355.41
2023-01-17T00:38:10.822Z,96356.22
2023-01-17T00:40:39.518Z,96351.91
2023-01-17T00:43:26.896Z,96354.91
2023-01-17T00:46:13.100Z,96362.16
2023-01-17T00:48:58.630Z,96362.75
2023-01-17T00:51:45.321Z,96364.13
2023-01-17T00:54:33.041Z,96367.13
2023-01-17T00:57:18.659Z,96368.22
2023-01-17T01:00:04.602Z,96373.88
2023-01-17T01:02:51.129Z,96376.09
2023-01-17T01:05:37.111Z,96377.97
2023-01-17T01:08:22.852Z,96376.38
2023-01-17T01:11:09.913Z,96378.25
2023-01-17T01:13:55.223Z,96376.66
2023-01-17T01:16:40.413Z,96377.75
2023-01-17T01:19:25.740Z,96372.66
2023-01-17T01:22:11.192Z,96368.66
2023-01-17T01:24:56.485Z,96367.84
2023-01-17T01:27:43.707Z,96368.66
2023-01-17T01:30:30.185Z,96366.25
2023-01-17T01:33:15.484Z,96363.84
2023-01-17T01:35:43.107Z,96359.56
2023-01-17T01:38:10.027Z,96364.13
2023-01-17T01:40:42.615Z,96368.41
2023-01-17T01:43:13.270Z,96364.13
2023-01-17T01:45:40.681Z,96363.03
2023-01-17T01:48:23.687Z,96363.03
2023-01-17T01:50:51.102Z,96358.75
2023-01-17T01:53:20.216Z,96362.53
2023-01-17T01:55:49.567Z,96361.44
2023-01-17T01:58:22.181Z,96357.66
2023-01-17T02:00:49.537Z,96350.69
2023-01-17T02:03:20.206Z,96350.19
2023-01-17T02:05:47.499Z,96335.91
2023-01-17T02:08:17.462Z,96332.41
2023-01-17T02:10:44.352Z,96327.84
2023-01-17T02:13:13.184Z,96321.16
2023-01-17T02:15:51.727Z,96315.75
2023-01-17T02:18:30.882Z,96318.47
2023-01-17T02:21:12.697Z,96314.19
2023-01-17T02:24:22.894Z,96307.97
2023-01-17T02:26:58.675Z,96293.50
2023-01-17T02:30:18.861Z,96284.63
2023-01-17T02:32:55.875Z,96281.16
2023-01-17T02:35:30.839Z,96283.03
2023-01-17T02:38:08.567Z,96278.75
2023-01-17T02:40:41.462Z,96281.44
2023-01-17T02:43:12.069Z,96279.84
2023-01-17T02:45:39.050Z,96277.66
2023-01-17T02:48:10.924Z,96284.13
2023-01-17T02:50:53.055Z,96283.31
2023-01-17T02:53:42.353Z,96282.53
2023-01-17T02:56:24.266Z,96281.72
2023-01-17T02:59:06.493Z,96264.75
2023-01-17T03:01:40.976Z,96269.38
2023-01-17T03:04:15.138Z,96269.66
2023-01-17T03:06:47.132Z,96258.91
2023-01-17T03:09:16.098Z,96253.50
2023-01-17T03:11:43.456Z,96262.69
2023-01-17T03:14:10.319Z,96266.44
2023-01-17T03:16:37.362Z,96262.69
2023-01-17T03:19:04.548Z,96255.69
2023-01-17T03:21:32.878Z,96264.84
2023-01-17T03:23:59.784Z,96262.69
2023-01-17T03:26:26.740Z,96254.91
2023-01-17T03:28:53.716Z,96261.38
2023-01-17T03:31:20.608Z,96257.88
2023-01-17T03:33:47.548Z,96250.09
2023-01-17T03:36:14.741Z,96253.59
2023-01-17T03:38:43.042Z,96258.97
2023-01-17T03:41:09.984Z,96245.53
2023-01-17T03:43:36.870Z,96251.69
2023-01-17T03:46:04.875Z,96240.44
2023-01-17T03:48:31.891Z,96243.13
2023-01-17T03:50:59.299Z,96254.66
2023-01-17T03:53:26.587Z,96258.44
2023-01-17T03:55:54.800Z,96253.88
2023-01-17T03:58:21.767Z,96249.59
2023-01-17T04:00:48.784Z,96244.22
2023-01-17T04:03:15.722Z,96251.47
2023-01-17T04:05:42.662Z,96249.88
2023-01-17T04:08:09.621Z,96249.88
2023-01-17T04:10:36.468Z,96242.88
2023-01-17T04:13:04.865Z,96247.19
2023-01-17T04:15:32.798Z,96238.31
2023-01-17T04:17:59.785Z,96231.34
2023-01-17T04:20:32.006Z,96229.75
2023-01-17T04:22:59.133Z,96225.16
2023-01-17T04:25:26.155Z,96224.38
2023-01-17T04:27:53.209Z,96223.56
2023-01-17T04:30:21.777Z,96221.97
2023-01-17T04:32:48.749Z,96213.91
2023-01-17T04:35:15.659Z,96216.59
2023-01-17T04:37:42.855Z,96202.31
2023-01-17T04:40:11.406Z,96196.13
2023-01-17T04:42:38.542Z,96200.44
2023-01-17T04:45:06.777Z,96198.03
2023-01-17T04:47:35.036Z,96190.75
2023-01-17T04:50:01.957Z,96184.59
2023-01-17T04:52:28.860Z,96181.91
2023-01-17T04:54:55.777Z,96180.81
2023-01-17T04:57:22.650Z,96174.94
2023-01-17T04:59:49.544Z,96171.72
2023-01-17T05:02:16.640Z,96174.41
2023-01-17T05:04:45.014Z,96169.28
2023-01-17T05:07:11.879Z,96165.53
2023-01-17T05:09:38.955Z,96170.09
2023-01-17T05:12:06.006Z,96166.59
2023-01-17T05:14:34.391Z,96156.94
2023-01-17T05:17:03.128Z,96163.91
2023-01-17T05:19:30.125Z,96157.75
2023-01-17T05:22:04.029Z,96155.34
2023-01-17T05:24:31.668Z,96143.78
2023-01-17T05:27:03.023Z,96151.84
2023-01-17T05:29:30.491Z,96142.97
2023-01-17T05:31:57.588Z,96140.88
2023-01-17T05:34:24.795Z,96136.56
2023-01-17T05:36:51.731Z,96127.72
2023-01-17T05:39:20.015Z,96127.44
2023-01-17T05:41:46.918Z,96123.06
2023-01-17T05:44:15.341Z,96127.56
2023-01-17T05:46:42.452Z,96133.97
2023-01-17T05:49:09.453Z,96141.97
2023-01-17T05:51:37.955Z,96132.72
2023-01-17T05:54:05.287Z,96135.31
2023-01-17T05:56:33.931Z,96129.53
2023-01-17T05:59:00.874Z,96129.19
2023-01-17T06:01:27.837Z,96134.94
2023-01-17T06:03:54.804Z,96132.69
2023-01-17T06:06:21.953Z,96115.03
2023-01-17T06:08:48.893Z,96106.53
2023-01-17T06:11:15.936Z,96110.50
2023-01-17T06:13:44.184Z,96104.41
2023-01-17T06:16:11.243Z,96110.19
2023-01-17T06:18:38.243Z,96114.56
2023-01-17T06:21:05.392Z,96111.16
2023-01-17T06:23:32.390Z,96112.38
2023-01-17T06:26:03.549Z,96108.97
2023-01-17T06:28:30.591Z,96102.84
2023-01-17T06:30:59.991Z,96111.00
2023-01-17T06:33:27.066Z,96111.72
2023-01-17T06:35:54.116Z,96106.22
2023-01-17T06:38:21.326Z,96102.63
2023-01-17T06:40:48.581Z,96109.00
2023-01-17T06:43:15.888Z,96116.50
2023-01-17T06:45:42.794Z,96110.00
2023-01-17T06:48:11.253Z,96116.97
2023-01-17T06:50:38.237Z,96118.59
2023-01-17T06:53:06.806Z,96117.78
2023-01-17T06:55:35.484Z,96117.78
2023-01-17T06:58:03.343Z,96121.59
2023-01-17T07:00:31.532Z,96118.06
2023-01-17T07:02:58.550Z,96109.19
2023-01-17T07:05:28.498Z,96097.09
2023-01-17T07:07:55.693Z,96108.19
2023-01-17T07:10:23.639Z,96096.94
2023-01-17T07:12:51.467Z,96094.22
2023-01-17T07:15:18.527Z,96093.72
2023-01-17T07:17:45.735Z,96087.03
2023-01-17T07:20:13.599Z,96083.06
2023-01-17T07:22:45.099Z,96073.69
2023-01-17T07:25:12.049Z,96078.28
2023-01-17T07:27:38.894Z,96066.50
2023-01-17T07:30:07.026Z,96062.19
2023-01-17T07:32:33.889Z,96047.72
2023-01-17T07:35:00.842Z,96057.22
2023-01-17T07:37:27.702Z,96052.41
2023-01-17T07:39:56.176Z,96053.84
2023-01-17T07:42:24.395Z,96057.13
2023-01-17T07:44:51.458Z,96052.38
2023-01-17T07:47:18.394Z,96052.97
2023-01-17T07:49:45.386Z,96050.88
2023-01-17T07:52:12.356Z,96051.78
2023-01-17T07:54:39.312Z,96045.41
2023-01-17T07:57:11.848Z,96038.22
2023-01-17T07:59:38.777Z,96040.75
2023-01-17T08:02:06.079Z,96039.94
2023-01-17T08:04:35.264Z,96039.44
2023-01-17T08:07:02.494Z,96038.75
2023-01-17T08:09:29.553Z,96037.47
2023-01-17T08:11:56.593Z,96027.28
2023-01-17T08:14:25.249Z,96029.47
2023-01-17T08:16:52.291Z,96036.25
2023-01-17T08:19:19.254Z,96037.66
2023-01-17T08:21:46.266Z,96038.25
2023-01-17T08:24:13.832Z,96036.97
2023-01-17T08:26:40.862Z,96028.69
2023-01-17T08:29:07.986Z,96028.16
2023-01-17T08:31:36.737Z,96019.91
2023-01-17T08:34:03.944Z,96023.19
2023-01-17T08:36:31.333Z,96020.78
2023-01-17T08:38:59.024Z,96018.72
2023-01-17T08:41:27.864Z,96008.53
2023-01-17T08:43:54.855Z,96018.50
2023-01-17T08:46:22.506Z,96031.47
2023-01-17T08:48:53.884Z,96028.28
2023-01-17T08:51:20.666Z,96012.13
2023-01-17T08:53:48.609Z,96018.41
2023-01-17T08:56:15.617Z,96024.09
2023-01-17T08:58:42.546Z,96017.91
2023-01-17T09:01:09.553Z,96020.91
2023-01-17T09:03:38.351Z,96025.50
2023-01-17T09:06:10.765Z,96022.28
2023-01-17T09:08:37.919Z,96024.19
2023-01-17T09:11:05.874Z,96020.72
2023-01-17T09:13:32.910Z,96025.56
2023-01-17T09:16:00.878Z,96024.78
2023-01-17T09:18:29.422Z,96029.38
2023-01-17T09:20:59.258Z,96023.50
2023-01-17T09:23:29.792Z,96027.25
2023-01-17T09:25:59.236Z,96033.16
2023-01-17T09:28:27.157Z,96027.69
2023-01-17T09:30:54.878Z,96028.38
2023-01-17T09:33:24.425Z,96024.00
2023-01-17T09:35:51.365Z,96029.28
2023-01-17T09:38:18.303Z,96028.09
2023-01-17T09:40:48.480Z,96031.47
2023-01-17T09:43:21.681Z,96035.66
2023-01-17T09:45:49.026Z,96032.56
2023-01-17T09:48:23.597Z,96037.56
2023-01-17T09:50:57.819Z,96039.84
2023-01-17T09:53:24.845Z,96043.44
2023-01-17T09:55:58.576Z,96047.59
2023-01-17T09:58:34.999Z,96045.28
2023-01-17T10:01:10.130Z,96048.38
2023-01-17T10:03:43.827Z,96046.34
2023-01-17T10:06:22.355Z,96042.16
2023-01-17T10:09:03.903Z,96053.63
2023-01-17T10:11:41.121Z,96045.13
2023-01-17T10:14:29.276Z,96042.63
2023-01-17T10:17:06.813Z,96040.59
2023-01-17T10:19:53.479Z,96033.19
2023-01-17T10:22:48.768Z,96029.25
2023-01-17T10:25:28.344Z,96023.75
2023-01-17T10:27:58.945Z,96028.72
2023-01-17T10:30:33.663Z,96026.19
2023-01-17T10:33:04.273Z,96026.06
2023-01-17T10:35:36.956Z,96015.78
2023-01-17T10:38:07.560Z,96023.72
2023-01-17T10:40:42.804Z,96008.81
2023-01-17T10:43:18.778Z,96009.00
2023-01-17T10:45:51.940Z,95999.50
2023-01-17T10:48:29.664Z,95991.88
2023-01-17T10:51:01.694Z,95992.88
2023-01-17T10:53:43.548Z,95984.47
2023-01-17T10:56:14.214Z,95976.88
2023-01-17T10:58:42.621Z,95982.75
2023-01-17T11:01:17.814Z,95980.56
2023-01-17T11:03:49.908Z,95964.03
2023-01-17T11:06:21.985Z,95967.53
2023-01-17T11:08:54.284Z,95952.91
2023-01-17T11:11:24.153Z,95952.91
2023-01-17T11:13:54.879Z,95952.31
2023-01-17T11:16:26.724Z,95954.38
2023-01-17T11:19:08.965Z,95944.38
2023-01-17T11:21:39.448Z,95941.34
2023-01-17T11:24:11.751Z,95942.97
2023-01-17T11:26:47.306Z,95938.34
2023-01-17T11:29:25.670Z,95926.78
2023-01-17T11:31:52.845Z,95917.56
2023-01-17T11:34:24.066Z,95920.25
2023-01-17T11:37:08.692Z,95911.03
2023-01-17T11:39:35.672Z,95907.53
2023-01-17T11:42:06.251Z,95904.84
2023-01-17T11:44:36.069Z,95897.53
2023-01-17T11:47:17.020Z,95890.56
2023-01-17T11:49:45.706Z,95892.16
2023-01-17T11:52:22.204Z,95885.47
2023-01-17T11:54:50.855Z,95882.47
2023-01-17T11:57:22.765Z,95881.97
2023-01-17T11:59:55.910Z,95881.19
2023-01-17T12:02:41.118Z,95880.88
2023-01-17T12:05:31.545Z,95879.25
2023-01-17T12:08:09.454Z,95865.78
2023-01-17T12:10:47.893Z,95866.88
2023-01-17T12:13:42.632Z,95863.38
2023-01-17T12:16:31.167Z,95848.63
2023-01-17T12:19:12.885Z,95843.22
2023-01-17T12:21:51.519Z,95842.44
2023-01-17T12:24:44.579Z,95837.81
2023-01-17T12:27:19.418Z,95841.63
2023-01-17T12:30:03.218Z,95847.03
2023-01-17T12:32:48.889Z,95843.53
2023-01-17T12:35:20.103Z,95839.25
2023-01-17T12:38:03.859Z,95845.44
2023-01-17T12:40:35.538Z,95834.66
2023-01-17T12:43:12.407Z,95834.66
2023-01-17T12:45:43.797Z,95827.66
2023-01-17T12:48:12.767Z,95830.84
2023-01-17T12:50:43.700Z,95825.28
2023-01-17T12:53:19.659Z,95819.06
2023-01-17T12:55:53.159Z,95817.50
2023-01-17T12:58:26.489Z,95812.88
2023-01-17T13:01:00.532Z,95813.69
2023-01-17T13:03:40.444Z,95804.00
2023-01-17T13:06:07.758Z,95808.59
2023-01-17T13:08:41.369Z,95802.06
2023-01-17T13:11:17.232Z,95803.69
2023-01-17T13:13:44.135Z,95809.41
2023-01-17T13:16:14.635Z,95806.69
2023-01-17T13:18:46.310Z,95802.88
2023-01-17T13:21:30.143Z,95812.09
2023-01-17T13:24:32.801Z,95807.47
2023-01-17T13:27:22.536Z,95808.28
2023-01-17T13:30:01.771Z,95799.72
2023-01-17T13:32:55.223Z,95799.72
2023-01-17T13:35:42.029Z,95800.50
2023-01-17T13:38:21.460Z,95799.72
2023-01-17T13:40:54.155Z,95814.78
2023-01-17T13:43:25.881Z,95809.72
2023-01-17T13:45:54.962Z,95812.41
2023-01-17T13:48:31.226Z,95815.25
2023-01-17T13:51:02.282Z,95812.88
2023-01-17T13:53:56.882Z,95817.19
2023-01-17T13:56:29.787Z,95820.19
2023-01-17T13:59:02.562Z,95826.38
2023-01-17T14:01:54.757Z,95828.28
2023-01-17T14:04:23.466Z,95819.69
2023-01-17T14:06:57.897Z,95820.19
2023-01-17T14:09:36.615Z,95821.31
2023-01-17T14:12:25.414Z,95818.63
2023-01-17T14:14:56.661Z,95821.31
2023-01-17T14:17:48.336Z,95817.50
2023-01-17T14:20:48.611Z,95817.50
2023-01-17T14:23:26.235Z,95834.00
2023-01-17T14:25:53.615Z,95822.41
2023-01-17T14:28:24.130Z,95830.50
2023-01-17T14:30:56.046Z,95834.81
2023-01-17T14:33:28.879Z,95832.09
2023-01-17T14:35:58.026Z,95834.00
2023-01-17T14:38:28.211Z,95836.69
2023-01-17T14:40:57.109Z,95837.50
2023-01-17T14:43:26.545Z,95834.81
2023-01-17T14:45:59.004Z,95835.59
2023-01-17T14:48:26.650Z,95837.50
2023-01-17T14:50:55.064Z,95841.78
2023-01-17T14:53:26.042Z,95846.06
2023-01-17T14:55:59.981Z,95848.75
2023-01-17T14:58:29.178Z,95843.38
2023-01-17T15:01:00.022Z,95844.47
2023-01-17T15:03:27.948Z,95843.38
2023-01-17T15:05:57.638Z,95841.78
2023-01-17T15:08:30.849Z,95849.56
2023-01-17T15:11:05.243Z,95858.44
2023-01-17T15:13:43.890Z,95844.94
2023-01-17T15:16:19.121Z,95851.47
2023-01-17T15:18:46.423Z,95852.59
2023-01-17T15:21:17.310Z,95854.16
2023-01-17T15:23:47.507Z,95852.91
2023-01-17T15:26:18.499Z,95860.69
2023-01-17T15:28:46.031Z,95856.88
2023-01-17T15:31:15.515Z,95855.59
2023-01-17T15:33:45.637Z,95861.78
2023-01-17T15:36:33.154Z,95860.19
2023-01-17T15:39:01.664Z,95863.69
2023-01-17T15:41:32.489Z,95864.00
2023-01-17T15:43:59.757Z,95862.09
2023-01-17T15:46:32.427Z,95862.88
2023-01-17T15:49:07.610Z,95872.91
2023-01-17T15:51:37.823Z,95857.03
2023-01-17T15:54:24.093Z,95860.50
2023-01-17T15:57:06.273Z,95858.13
2023-01-17T15:59:51.193Z,95853.81
2023-01-17T16:02:31.255Z,95857.31
2023-01-17T16:04:58.998Z,95857.63
2023-01-17T16:07:34.071Z,95863.03
2023-01-17T16:10:13.742Z,95860.34
2023-01-17T16:12:42.850Z,95868.44
2023-01-17T16:15:13.275Z,95866.53
2023-01-17T16:17:42.352Z,95871.94
2023-01-17T16:20:15.946Z,95870.31
2023-01-17T16:22:43.779Z,95870.31
2023-01-17T16:25:15.677Z,95874.63
2023-01-17T16:27:44.642Z,95869.56
2023-01-17T16:30:17.110Z,95875.72
2023-01-17T16:32:56.555Z,95882.22
2023-01-17T16:35:26.255Z,95878.72
2023-01-17T16:37:54.829Z,95873.34
2023-01-17T16:40:23.576Z,95872.53
2023-01-17T16:42:52.059Z,95883.31
2023-01-17T16:45:19.183Z,95886.31
2023-01-17T16:47:47.689Z,95886.31
2023-01-17T16:50:16.622Z,95890.13
2023-01-17T16:52:43.497Z,95888.56
2023-01-17T16:55:13.865Z,95893.63
2023-01-17T16:57:41.821Z,95895.53
2023-01-17T17:00:12.530Z,95895.53
2023-01-17T17:02:40.757Z,95899.34
2023-01-17T17:05:09.504Z,95902.06
2023-01-17T17:07:42.675Z,95906.34
2023-01-17T17:10:10.745Z,95904.25
2023-01-17T17:12:37.652Z,95907.75
2023-01-17T17:15:05.495Z,95911.53
2023-01-17T17:17:36.130Z,95903.44
2023-01-17T17:20:03.276Z,95914.56
2023-01-17T17:22:30.142Z,95914.56
2023-01-17T17:24:57.129Z,95911.88
2023-01-17T17:27:26.544Z,95917.28
2023-01-17T17:29:53.437Z,95919.97
2023-01-17T17:32:21.110Z,95919.16
2023-01-17T17:34:52.465Z,95922.16
2023-01-17T17:37:19.178Z,95924.88
2023-01-17T17:39:46.080Z,95923.59
2023-01-17T17:42:13.206Z,95922.78
2023-01-17T17:44:40.094Z,95928.19
2023-01-17T17:47:07.002Z,95925.78
2023-01-17T17:49:33.932Z,95926.59
2023-01-17T17:52:05.523Z,95934.38
2023-01-17T17:54:32.714Z,95932.78
2023-01-17T17:56:59.936Z,95922.31
2023-01-17T17:59:27.153Z,95924.72
2023-01-17T18:01:54.092Z,95932.00
2023-01-17T18:04:22.042Z,95925.78
2023-01-17T18:06:49.003Z,95930.41
2023-01-17T18:09:17.728Z,95936.59
2023-01-17T18:11:44.797Z,95932.59
2023-01-17T18:14:14.143Z,95935.00
2023-01-17T18:16:43.080Z,95943.41
2023-01-17T18:19:14.487Z,95940.69
2023-01-17T18:21:41.268Z,95937.69
2023-01-17T18:24:11.037Z,95944.03
2023-01-17T18:26:40.777Z,95938.66
2023-01-17T18:29:10.477Z,95944.03
2023-01-17T18:31:37.545Z,95943.69
2023-01-17T18:34:07.033Z,95953.72
2023-01-17T18:36:34.896Z,95951.03
2023-01-17T18:39:02.996Z,95954.50
2023-01-17T18:41:31.299Z,95956.41
2023-01-17T18:43:59.601Z,95958.31
2023-01-17T18:46:26.886Z,95953.72
2023-01-17T18:48:56.185Z,95959.88
2023-01-17T18:51:23.305Z,95957.53
2023-01-17T18:53:50.273Z,95956.41
2023-01-17T18:56:20.148Z,95951.03
2023-01-17T18:58:48.910Z,95955.59
2023-01-17T19:01:19.220Z,95960.22
2023-01-17T19:03:48.043Z,95962.59
2023-01-17T19:06:17.351Z,95961.00
2023-01-17T19:08:45.065Z,95961.00
2023-01-17T19:11:12.431Z,95954.84
2023-01-17T19:13:41.826Z,95966.69
2023-01-17T19:16:13.148Z,95967.22
2023-01-17T19:18:41.574Z,95964.50
2023-01-17T19:21:10.944Z,95967.81
2023-01-17T19:23:37.899Z,95967.00
2023-01-17T19:26:08.359Z,95967.81
2023-01-17T19:28:37.689Z,95974.03
2023-01-17T19:31:06.239Z,95978.59
2023-01-17T19:33:34.555Z,95979.72
2023-01-17T19:36:05.817Z,95982.41
2023-01-17T19:38:34.601Z,95984.00
2023-01-17T19:41:07.465Z,95989.41
2023-01-17T19:43:34.437Z,95994.78
2023-01-17T19:46:01.405Z,95992.09
2023-01-17T19:48:29.034Z,95986.69
2023-01-17T19:50:56.385Z,95990.22
2023-01-17T19:53:24.759Z,95988.59
2023-01-17T19:55:51.667Z,95995.91
2023-01-17T19:58:18.609Z,95999.06
2023-01-17T20:00:46.690Z,96007.16
2023-01-17T20:03:13.891Z,95991.00
2023-01-17T20:05:40.780Z,95999.38
2023-01-17T20:08:09.799Z,95998.31
2023-01-17T20:10:38.049Z,95994.00
2023-01-17T20:13:04.920Z,95995.91
2023-01-17T20:15:31.858Z,95990.50
2023-01-17T20:17:59.514Z,95996.69
2023-01-17T20:20:26.539Z,95998.31
2023-01-17T20:22:53.744Z,95998.59
2023-01-17T20:25:20.694Z,96001.31
2023-01-17T20:27:48.968Z,96006.69
2023-01-17T20:30:20.549Z,96005.13
2023-01-17T20:32:47.982Z,96001.31
2023-01-17T20:35:16.042Z,96013.22
2023-01-17T20:37:42.911Z,96020.19
2023-01-17T20:40:12.224Z,96021.31
2023-01-17T20:42:39.122Z,96017.78
2023-01-17T20:45:08.987Z,96022.38
2023-01-17T20:47:35.890Z,96021.91
2023-01-17T20:50:04.031Z,96023.03
2023-01-17T20:52:31.080Z,96028.72
2023-01-17T20:54:57.998Z,96025.81
2023-01-17T20:57:24.813Z,96022.66
2023-01-17T20:59:52.374Z,96030.22
2023-01-17T21:02:20.849Z,96029.75
2023-01-17T21:04:47.793Z,96024.97
2023-01-17T21:07:14.668Z,96028.28
2023-01-17T21:09:42.917Z,96033.50
2023-01-17T21:12:09.812Z,96024.13
2023-01-17T21:14:37.637Z,96033.63
2023-01-17T21:17:04.561Z,96035.03
2023-01-17T21:19:32.851Z,96047.22
2023-01-17T21:22:00.114Z,96043.22
2023-01-17T21:24:28.693Z,96049.53
2023-01-17T21:26:56.933Z,96048.22
2023-01-17T21:29:29.224Z,96044.53
2023-01-17T21:31:56.382Z,96043.56
2023-01-17T21:34:25.367Z,96054.63
2023-01-17T21:36:53.892Z,96054.44
2023-01-17T21:39:20.794Z,96052.06
2023-01-17T21:41:49.657Z,96056.13
2023-01-17T21:44:19.702Z,96055.97
2023-01-17T21:46:47.467Z,96058.94
2023-01-17T21:49:14.729Z,96056.84
2023-01-17T21:51:54.366Z,96057.47
2023-01-17T21:54:44.779Z,96061.59
2023-01-17T21:57:31.360Z,96066.75
2023-01-17T21:59:58.356Z,96070.09
2023-01-17T22:02:25.299Z,96059.91
2023-01-17T22:04:54.496Z,96074.47
2023-01-17T22:07:21.413Z,96067.00
2023-01-17T22:09:49.883Z,96067.59
2023-01-17T22:12:16.798Z,96072.50
2023-01-17T22:14:43.672Z,96081.66
2023-01-17T22:17:10.642Z,96081.16
2023-01-17T22:19:37.551Z,96083.34
2023-01-17T22:22:04.450Z,96082.88
2023-01-17T22:24:31.389Z,96089.34
2023-01-17T22:26:59.683Z,96096.91
2023-01-17T22:29:26.993Z,96093.75
2023-01-17T22:31:53.924Z,96098.91
2023-01-17T22:34:20.890Z,96104.28
2023-01-17T22:36:48.876Z,96098.41
2023-01-17T22:39:15.839Z,96104.06
2023-01-17T22:41:42.718Z,96107.06
2023-01-17T22:44:11.276Z,96110.06
2023-01-17T22:46:39.214Z,96113.84
2023-01-17T22:49:08.431Z,96117.31
2023-01-17T22:51:35.732Z,96112.25
2023-01-17T22:54:02.801Z,96118.72
2023-01-17T22:56:32.168Z,96122.50
2023-01-17T22:59:00.816Z,96124.41
2023-01-17T23:01:31.339Z,96126.91
2023-01-17T23:04:00.622Z,96143.06
2023-01-17T23:06:30.403Z,96133.38
2023-01-17T23:09:00.171Z,96146.03
2023-01-17T23:11:41.153Z,96144.44
2023-01-17T23:14:11.642Z,96145.56
2023-01-17T23:17:02.000Z,96143.94
2023-01-17T23:19:32.374Z,96153.41
2023-01-17T23:22:16.404Z,96148.31
2023-01-17T23:24:45.415Z,96147.81
2023-01-17T23:27:32.856Z,96154.31
2023-01-17T23:29:59.982Z,96150.03
2023-01-17T23:32:28.903Z,96144.66
2023-01-17T23:34:55.896Z,96153.78
2023-01-17T23:37:46.884Z,96157.59
2023-01-17T23:40:14.073Z,96156.00
2023-01-17T23:42:59.883Z,96157.88
2023-01-17T23:45:27.188Z,96160.09
2023-01-17T23:47:55.922Z,96155.78
2023-01-17T23:50:22.965Z,96167.63
2023-01-17T23:52:49.811Z,96175.72
2023-01-17T23:55:16.907Z,96175.72
2023-01-17T23:57:43.970Z,96176.00
